createdAt,value
2022-11-28T00:01:47.451Z,20.35
2022-11-28T00:04:16.782Z,18.77
2022-11-28T00:06:50.219Z,20.10
2022-11-28T00:09:25.365Z,18.88
2022-11-28T00:12:04.700Z,15.43
2022-11-28T00:14:36.057Z,17.25
2022-11-28T00:17:05.302Z,18.60
2022-11-28T00:19:34.471Z,17.13
2022-11-28T00:22:03.789Z,17.67
2022-11-28T00:24:38.000Z,15.45
2022-11-28T00:27:08.326Z,19.88
2022-11-28T00:29:41.752Z,16.08
2022-11-28T00:32:11.161Z,17.17
2022-11-28T00:34:50.434Z,17.27
2022-11-28T00:37:19.760Z,15.05
2022-11-28T00:39:49.064Z,15.05
2022-11-28T00:42:21.733Z,15.25
2022-11-28T00:44:52.981Z,19.35
2022-11-28T00:47:22.599Z,18.33
2022-11-28T00:49:52.029Z,17.23
2022-11-28T00:52:26.214Z,19.60
2022-11-28T00:54:55.455Z,16.35
2022-11-28T00:57:24.651Z,16.48
2022-11-28T00:59:58.250Z,17.40
2022-11-28T01:02:27.888Z,17.33
2022-11-28T01:04:57.917Z,16.40
2022-11-28T01:07:28.104Z,16.52
2022-11-28T01:09:57.846Z,16.00
2022-11-28T01:12:28.027Z,19.88
2022-11-28T01:14:59.268Z,18.58
2022-11-28T01:17:33.605Z,19.17
2022-11-28T01:20:02.947Z,19.90
2022-11-28T01:22:32.925Z,18.00
2022-11-28T01:25:07.373Z,15.70
2022-11-28T01:27:36.715Z,15.35
2022-11-28T01:30:14.520Z,14.77
2022-11-28T01:32:44.486Z,13.98
2022-11-28T01:35:17.258Z,16.98
2022-11-28T01:37:52.001Z,10.70
2022-11-28T01:40:21.661Z,13.43
2022-11-28T01:42:55.985Z,14.82
2022-11-28T01:45:30.029Z,14.98
2022-11-28T01:50:45.983Z,14.77
2022-11-28T01:53:20.598Z,14.25
2022-11-28T01:55:56.346Z,14.90
2022-11-28T01:58:26.322Z,13.13
2022-11-28T02:00:58.113Z,13.00
2022-11-28T02:03:41.265Z,11.70
2022-11-28T02:06:11.804Z,14.35
2022-11-28T02:08:41.092Z,13.00
2022-11-28T02:11:40.540Z,14.48
2022-11-28T02:14:25.582Z,14.23
2022-11-28T02:17:13.751Z,12.55
2022-11-28T02:20:26.583Z,13.98
2022-11-28T02:23:06.351Z,10.35
2022-11-28T02:26:04.507Z,14.68
2022-11-28T02:29:12.778Z,16.42
2022-11-28T02:32:07.891Z,9.45
2022-11-28T02:34:50.471Z,13.48
2022-11-28T02:37:28.441Z,13.43
2022-11-28T02:40:09.015Z,14.75
2022-11-28T02:42:52.628Z,12.77
2022-11-28T02:45:29.562Z,14.38
2022-11-28T02:48:05.915Z,14.75
2022-11-28T02:50:41.654Z,15.15
2022-11-28T02:53:15.484Z,12.15
2022-11-28T02:55:46.878Z,15.07
2022-11-28T02:58:18.145Z,10.68
2022-11-28T03:00:49.167Z,12.52
2022-11-28T03:03:36.344Z,17.58
2022-11-28T03:09:13.305Z,16.88
2022-11-28T03:11:51.897Z,15.10
2022-11-28T03:14:38.667Z,15.15
2022-11-28T03:17:17.236Z,14.80
2022-11-28T03:19:59.362Z,16.73
2022-11-28T03:22:42.678Z,14.40
2022-11-28T03:25:25.042Z,17.63
2022-11-28T03:28:00.974Z,12.38
2022-11-28T03:30:34.251Z,13.20
2022-11-28T03:33:05.856Z,18.75
2022-11-28T03:35:51.132Z,17.60
2022-11-28T03:38:24.146Z,16.55
2022-11-28T03:40:57.272Z,17.70
2022-11-28T03:43:29.391Z,12.65
2022-11-28T03:46:03.029Z,17.17
2022-11-28T03:51:17.847Z,16.75
2022-11-28T03:53:55.794Z,20.13
2022-11-28T03:56:32.270Z,17.55
2022-11-28T03:59:05.588Z,18.25
2022-11-28T04:01:41.509Z,15.73
2022-11-28T04:04:27.553Z,14.38
2022-11-28T04:07:04.161Z,18.02
2022-11-28T04:09:45.885Z,16.27
2022-11-28T04:12:23.496Z,17.38
2022-11-28T04:14:57.972Z,17.30
2022-11-28T04:17:31.777Z,16.63
2022-11-28T04:23:00.015Z,17.02
2022-11-28T04:25:32.580Z,18.20
2022-11-28T04:28:09.618Z,14.23
2022-11-28T04:30:40.543Z,16.05
2022-11-28T04:33:14.258Z,15.97
2022-11-28T04:35:52.730Z,18.80
2022-11-28T04:38:28.766Z,17.35
2022-11-28T04:41:09.293Z,14.70
2022-11-28T04:43:44.617Z,15.50
2022-11-28T04:46:24.730Z,16.42
2022-11-28T04:48:54.190Z,15.82
2022-11-28T04:51:27.382Z,18.17
2022-11-28T04:54:05.141Z,16.83
2022-11-28T04:56:42.979Z,16.35
2022-11-28T04:59:14.569Z,15.73
2022-11-28T05:01:52.444Z,16.45
2022-11-28T05:04:21.820Z,16.90
2022-11-28T05:07:08.471Z,20.77
2022-11-28T05:09:39.763Z,19.25
2022-11-28T05:12:14.572Z,18.85
2022-11-28T05:14:44.095Z,21.33
2022-11-28T05:17:15.149Z,17.85
2022-11-28T05:19:44.461Z,16.27
2022-11-28T05:22:13.715Z,15.35
2022-11-28T05:24:45.166Z,15.35
2022-11-28T05:27:14.563Z,17.85
2022-11-28T05:29:52.388Z,20.75
2022-11-28T05:32:21.950Z,17.85
2022-11-28T05:34:51.183Z,18.40
2022-11-28T05:37:20.487Z,15.50
2022-11-28T05:39:52.071Z,16.13
2022-11-28T05:42:21.502Z,15.60
2022-11-28T05:44:50.738Z,14.85
2022-11-28T05:47:20.060Z,14.23
2022-11-28T05:49:49.492Z,17.27
2022-11-28T05:52:19.809Z,15.73
2022-11-28T05:54:51.962Z,12.82
2022-11-28T05:57:26.277Z,11.90
2022-11-28T05:59:55.846Z,17.55
2022-11-28T06:02:25.098Z,16.90
2022-11-28T06:05:04.313Z,15.23
2022-11-28T06:07:45.726Z,15.80
2022-11-28T06:10:17.484Z,16.42
2022-11-28T06:12:46.770Z,16.23
2022-11-28T06:15:16.149Z,15.38
2022-11-28T06:17:50.574Z,15.40
2022-11-28T06:20:19.906Z,15.00
2022-11-28T06:22:49.491Z,13.43
2022-11-28T06:25:20.885Z,12.75
2022-11-28T06:27:50.218Z,14.20
2022-11-28T06:30:19.921Z,12.90
2022-11-28T06:32:49.304Z,14.57
2022-11-28T06:35:19.398Z,14.52
2022-11-28T06:37:48.740Z,16.55
2022-11-28T06:40:21.334Z,15.68
2022-11-28T06:42:50.755Z,15.77
2022-11-28T06:45:20.279Z,14.82
2022-11-28T06:47:50.013Z,15.32
2022-11-28T06:50:19.283Z,13.82
2022-11-28T06:52:56.501Z,14.18
2022-11-28T06:55:28.235Z,15.48
2022-11-28T06:57:57.554Z,14.95
2022-11-28T07:00:27.399Z,13.75
2022-11-28T07:03:12.963Z,14.57
2022-11-28T07:05:42.364Z,14.10
2022-11-28T07:08:11.733Z,16.40
2022-11-28T07:10:43.590Z,13.15
2022-11-28T07:15:53.684Z,11.98
2022-11-28T07:18:23.225Z,13.23
2022-11-28T07:20:52.982Z,15.13
2022-11-28T07:23:22.379Z,14.57
2022-11-28T07:25:53.753Z,15.23
2022-11-28T07:28:23.601Z,15.23
2022-11-28T07:31:00.988Z,16.52
2022-11-28T07:33:31.452Z,14.20
2022-11-28T07:36:04.182Z,16.20
2022-11-28T07:38:34.185Z,14.13
2022-11-28T07:41:09.812Z,12.57
2022-11-28T07:43:39.959Z,15.63
2022-11-28T07:46:13.238Z,13.32
2022-11-28T07:48:43.107Z,11.75
2022-11-28T07:51:14.395Z,15.23
2022-11-28T07:53:49.539Z,13.18
2022-11-28T07:56:39.365Z,13.57
2022-11-28T07:59:18.008Z,16.45
2022-11-28T08:01:48.274Z,14.00
2022-11-28T08:04:17.861Z,14.55
2022-11-28T08:06:47.326Z,18.42
2022-11-28T08:09:16.731Z,17.08
2022-11-28T08:11:48.306Z,15.05
2022-11-28T08:14:17.606Z,17.60
2022-11-28T08:16:47.165Z,16.83
2022-11-28T08:19:16.780Z,18.48
2022-11-28T08:21:46.008Z,17.88
2022-11-28T08:24:15.219Z,19.63
2022-11-28T08:26:44.998Z,22.10
2022-11-28T08:29:16.102Z,20.70
2022-11-28T08:31:45.409Z,18.55
2022-11-28T08:34:14.599Z,15.60
2022-11-28T08:36:44.586Z,20.35
2022-11-28T08:39:23.809Z,18.50
2022-11-28T08:41:56.637Z,17.90
2022-11-28T08:47:02.484Z,16.38
2022-11-28T08:49:32.074Z,17.83
2022-11-28T08:52:01.362Z,16.30
2022-11-28T08:54:30.483Z,15.73
2022-11-28T08:57:05.608Z,15.90
2022-11-28T08:59:37.209Z,14.88
2022-11-28T09:02:12.522Z,18.48
2022-11-28T09:04:46.832Z,15.98
2022-11-28T09:07:19.057Z,16.55
2022-11-28T09:09:48.770Z,16.30
2022-11-28T09:12:18.569Z,15.95
2022-11-28T09:14:49.784Z,13.30
2022-11-28T09:19:58.668Z,13.32
2022-11-28T09:22:30.139Z,11.43
2022-11-28T09:24:59.438Z,11.80
2022-11-28T09:27:28.612Z,12.05
2022-11-28T09:29:59.739Z,13.70
2022-11-28T09:32:28.894Z,14.73
2022-11-28T09:34:58.151Z,14.05
2022-11-28T09:37:29.076Z,11.98
2022-11-28T09:40:14.252Z,13.30
2022-11-28T09:42:45.466Z,16.20
2022-11-28T09:45:24.164Z,15.18
2022-11-28T09:47:56.904Z,13.68
2022-11-28T09:50:28.795Z,14.27
2022-11-28T09:55:41.113Z,10.93
2022-11-28T09:58:26.593Z,11.75
2022-11-28T10:01:03.883Z,16.02
2022-11-28T10:03:55.408Z,12.60
2022-11-28T10:06:30.926Z,11.25
2022-11-28T10:09:20.493Z,11.07
2022-11-28T10:12:05.820Z,11.55
2022-11-28T10:14:52.607Z,10.02
2022-11-28T10:17:36.023Z,10.85
2022-11-28T10:23:00.400Z,8.65
2022-11-28T10:25:35.773Z,11.40
2022-11-28T10:28:17.150Z,8.40
2022-11-28T10:30:59.416Z,6.25
2022-11-28T10:33:36.887Z,9.00
2022-11-28T10:36:06.944Z,11.10
2022-11-28T10:38:38.330Z,8.02
2022-11-28T10:41:16.596Z,9.30
2022-11-28T10:43:53.580Z,7.75
2022-11-28T10:46:36.366Z,8.40
2022-11-28T10:49:22.401Z,7.70
2022-11-28T10:52:03.621Z,6.75
2022-11-28T10:54:55.713Z,6.78
2022-11-28T11:00:11.082Z,9.45
2022-11-28T11:02:48.948Z,6.43
2022-11-28T11:05:22.308Z,7.32
2022-11-28T11:07:53.992Z,8.32
2022-11-28T11:10:27.588Z,6.40
2022-11-28T11:12:56.887Z,6.43
2022-11-28T11:15:33.307Z,7.90
2022-11-28T11:18:07.328Z,6.53
2022-11-28T11:20:50.846Z,7.05
2022-11-28T11:23:25.317Z,8.70
2022-11-28T11:25:57.935Z,8.93
2022-11-28T11:28:43.596Z,9.05
2022-11-28T11:31:25.906Z,10.45
2022-11-28T11:34:03.731Z,8.65
2022-11-28T11:36:36.686Z,9.57
2022-11-28T11:39:22.336Z,14.55
2022-11-28T11:41:54.688Z,10.88
2022-11-28T11:44:36.043Z,11.85
2022-11-28T11:47:17.748Z,12.27
2022-11-28T11:49:49.575Z,11.93
2022-11-28T11:54:59.694Z,11.18
2022-11-28T11:57:34.705Z,11.18
2022-11-28T12:00:08.987Z,7.35
2022-11-28T12:02:47.745Z,8.35
2022-11-28T12:05:20.068Z,7.50
2022-11-28T12:07:59.224Z,6.53
2022-11-28T12:10:33.935Z,6.75
2022-11-28T12:13:04.431Z,7.00
2022-11-28T12:15:42.995Z,9.18
2022-11-28T12:18:26.315Z,11.88
2022-11-28T12:21:10.295Z,12.98
2022-11-28T12:26:52.043Z,11.95
2022-11-28T12:29:39.141Z,10.25
2022-11-28T12:32:24.161Z,9.55
2022-11-28T12:35:08.821Z,9.50
2022-11-28T12:38:10.187Z,9.40
2022-11-28T12:41:07.890Z,11.85
2022-11-28T12:43:50.312Z,10.93
2022-11-28T12:46:29.759Z,9.48
2022-11-28T12:55:28.896Z,9.07
2022-11-28T12:58:07.692Z,8.13
2022-11-28T13:00:56.327Z,8.48
2022-11-28T13:03:40.713Z,9.32
2022-11-28T13:06:23.079Z,8.30
2022-11-28T13:09:20.306Z,9.35
2022-11-28T13:14:44.962Z,12.30
2022-11-28T13:17:28.910Z,8.50
2022-11-28T13:20:08.528Z,9.00
2022-11-28T13:23:01.996Z,10.65
2022-11-28T13:25:39.890Z,8.90
2022-11-28T13:28:20.359Z,8.43
2022-11-28T13:30:54.689Z,10.70
2022-11-28T13:33:41.879Z,8.35
2022-11-28T13:39:16.679Z,8.07
2022-11-28T13:42:28.763Z,9.43
2022-11-28T13:44:51.926Z,7.05
2022-11-28T13:47:31.498Z,7.13
2022-11-28T13:50:30.478Z,8.30
2022-11-28T13:53:01.510Z,7.55
2022-11-28T13:55:44.359Z,9.73
2022-11-28T13:58:22.293Z,10.20
2022-11-28T14:01:15.160Z,6.03
2022-11-28T14:03:54.850Z,7.50
2022-11-28T14:06:26.544Z,7.07
2022-11-28T14:09:06.772Z,7.32
2022-11-28T14:12:00.020Z,8.48
2022-11-28T14:14:48.364Z,9.45
2022-11-28T14:17:36.535Z,7.78
2022-11-28T14:20:20.529Z,7.28
2022-11-28T14:23:08.161Z,7.95
2022-11-28T14:25:43.472Z,10.02
2022-11-28T14:28:26.380Z,8.20
2022-11-28T14:31:05.911Z,10.48
2022-11-28T14:33:42.034Z,10.85
2022-11-28T14:36:33.459Z,9.98
2022-11-28T14:39:33.196Z,12.88
2022-11-28T14:45:47.895Z,14.00
2022-11-28T14:48:21.468Z,12.40
2022-11-28T14:51:01.009Z,12.82
2022-11-28T14:53:46.016Z,9.20
2022-11-28T14:56:28.742Z,11.68
2022-11-28T14:59:00.916Z,12.75
2022-11-28T15:01:56.164Z,13.45
2022-11-28T15:04:48.118Z,15.70
2022-11-28T15:07:30.193Z,15.90
2022-11-28T15:10:09.763Z,16.60
2022-11-28T15:12:51.499Z,15.45
2022-11-28T15:15:22.296Z,14.98
2022-11-28T15:17:57.772Z,13.45
2022-11-28T15:20:32.412Z,12.65
2022-11-28T15:23:10.493Z,11.73
2022-11-28T15:25:40.342Z,11.90
2022-11-28T15:28:16.535Z,10.90
2022-11-28T15:30:47.802Z,12.45
2022-11-28T15:33:18.013Z,12.57
2022-11-28T15:35:59.049Z,10.77
2022-11-28T15:38:32.781Z,9.07
2022-11-28T15:41:02.658Z,9.60
2022-11-28T15:43:33.007Z,10.18
2022-11-28T15:46:05.197Z,10.43
2022-11-28T15:48:40.551Z,9.55
2022-11-28T15:51:23.951Z,11.75
2022-11-28T15:53:55.881Z,11.18
2022-11-28T15:58:55.647Z,8.23
2022-11-28T16:01:26.811Z,8.93
2022-11-28T16:03:59.476Z,10.65
2022-11-28T16:06:37.252Z,9.25
2022-11-28T16:09:25.742Z,10.63
2022-11-28T16:11:56.374Z,10.63
2022-11-28T16:14:29.973Z,7.72
2022-11-28T16:17:01.312Z,6.65
2022-11-28T16:19:33.395Z,7.85
2022-11-28T16:24:57.736Z,8.77
2022-11-28T16:27:31.113Z,9.70
2022-11-28T16:30:01.364Z,8.70
2022-11-28T16:32:40.104Z,7.60
2022-11-28T16:35:14.891Z,8.18
2022-11-28T16:37:44.451Z,9.40
2022-11-28T16:40:21.848Z,8.60
2022-11-28T16:42:54.844Z,5.57
2022-11-28T16:45:27.803Z,7.13
2022-11-28T16:48:04.590Z,8.75
2022-11-28T16:50:39.698Z,6.80
2022-11-28T16:53:12.339Z,7.45
2022-11-28T16:55:49.011Z,8.75
2022-11-28T16:58:22.448Z,8.40
2022-11-28T17:01:02.701Z,8.20
2022-11-28T17:03:55.213Z,6.78
2022-11-28T17:06:33.706Z,6.05
2022-11-28T17:09:03.695Z,7.30
2022-11-28T17:11:44.324Z,8.90
2022-11-28T17:14:14.793Z,6.53
2022-11-28T17:16:49.575Z,7.63
2022-11-28T17:19:18.878Z,8.10
2022-11-28T17:21:57.693Z,7.72
2022-11-28T17:24:29.349Z,6.50
2022-11-28T17:27:07.779Z,9.15
2022-11-28T17:29:37.263Z,7.40
2022-11-28T17:32:07.206Z,5.60
2022-11-28T17:34:42.455Z,6.47
2022-11-28T17:37:12.422Z,7.70
2022-11-28T17:40:02.156Z,8.70
2022-11-28T17:42:34.837Z,6.93
2022-11-28T17:45:11.861Z,8.07
2022-11-28T17:47:41.629Z,7.60
2022-11-28T17:50:14.385Z,8.13
2022-11-28T17:52:45.260Z,6.43
2022-11-28T17:55:14.851Z,7.10
2022-11-28T17:57:47.012Z,7.93
2022-11-28T18:00:20.079Z,6.57
2022-11-28T18:02:49.767Z,6.63
2022-11-28T18:05:19.324Z,5.35
2022-11-28T18:07:49.218Z,6.38
2022-11-28T18:10:18.959Z,5.40
2022-11-28T18:12:55.443Z,5.47
2022-11-28T18:15:28.452Z,5.55
2022-11-28T18:18:03.724Z,7.75
2022-11-28T18:20:35.806Z,6.10
2022-11-28T18:23:13.118Z,5.30
2022-11-28T18:25:44.735Z,6.53
2022-11-28T18:28:19.238Z,6.30
2022-11-28T18:30:51.243Z,5.45
2022-11-28T18:33:20.658Z,8.02
2022-11-28T18:35:50.147Z,7.85
2022-11-28T18:38:19.716Z,8.93
2022-11-28T18:40:49.155Z,9.88
2022-11-28T18:43:20.408Z,6.68
2022-11-28T18:48:19.528Z,7.15
2022-11-28T18:50:48.898Z,7.28
2022-11-28T18:53:18.934Z,5.82
2022-11-28T18:55:48.384Z,4.68
2022-11-28T18:58:19.634Z,7.45
2022-11-28T19:03:19.086Z,6.88
2022-11-28T19:05:49.352Z,7.88
2022-11-28T19:08:18.821Z,8.13
2022-11-28T19:10:48.329Z,8.10
2022-11-28T19:13:24.663Z,7.40
2022-11-28T19:15:58.420Z,6.90
2022-11-28T19:18:27.911Z,5.72
2022-11-28T19:20:57.410Z,6.57
2022-11-28T19:23:26.848Z,7.13
2022-11-28T19:25:56.293Z,6.38
2022-11-28T19:28:27.642Z,10.30
2022-11-28T19:31:07.758Z,7.43
2022-11-28T19:33:37.234Z,7.03
2022-11-28T19:36:08.915Z,7.43
2022-11-28T19:38:39.692Z,6.57
2022-11-28T19:41:10.090Z,7.27
2022-11-28T19:43:42.594Z,9.47
2022-11-28T19:46:13.474Z,9.93
2022-11-28T19:48:44.250Z,7.80
2022-11-28T19:51:15.432Z,10.90
2022-11-28T19:54:01.355Z,9.95
2022-11-28T19:56:33.148Z,8.63
2022-11-28T19:59:04.363Z,13.48
2022-11-28T20:01:33.965Z,7.47
2022-11-28T20:04:03.843Z,10.80
2022-11-28T20:06:34.563Z,8.50
2022-11-28T20:09:08.342Z,8.02
2022-11-28T20:11:40.878Z,10.43
2022-11-28T20:14:16.606Z,8.80
2022-11-28T20:16:56.050Z,9.43
2022-11-28T20:19:25.689Z,11.77
2022-11-28T20:21:58.091Z,11.60
2022-11-28T20:24:27.409Z,12.38
2022-11-28T20:26:56.570Z,12.05
2022-11-28T20:32:08.470Z,14.52
2022-11-28T20:34:38.614Z,16.48
2022-11-28T20:37:07.817Z,14.15
2022-11-28T20:39:37.600Z,14.73
2022-11-28T20:42:07.233Z,13.65
2022-11-28T20:44:38.495Z,12.45
2022-11-28T20:47:13.450Z,12.25
2022-11-28T20:49:42.910Z,13.40
2022-11-28T20:52:12.439Z,12.82
2022-11-28T20:54:41.681Z,13.30
2022-11-28T20:57:26.142Z,13.32
2022-11-28T20:59:58.327Z,14.73
2022-11-28T21:02:27.627Z,12.95
2022-11-28T21:04:57.278Z,12.27
2022-11-28T21:07:31.717Z,12.55
2022-11-28T21:10:03.288Z,14.68
2022-11-28T21:12:38.869Z,13.25
2022-11-28T21:15:11.619Z,12.80
2022-11-28T21:17:41.196Z,12.68
2022-11-28T21:20:11.988Z,13.30
2022-11-28T21:22:41.386Z,14.45
2022-11-28T21:25:11.091Z,12.02
2022-11-28T21:27:45.473Z,13.52
2022-11-28T21:30:17.007Z,14.07
2022-11-28T21:32:47.161Z,12.57
2022-11-28T21:35:16.432Z,13.70
2022-11-28T21:37:45.778Z,13.07
2022-11-28T21:40:16.178Z,11.55
2022-11-28T21:42:51.753Z,13.15
2022-11-28T21:45:23.504Z,14.23
2022-11-28T21:47:53.619Z,11.52
2022-11-28T21:50:22.817Z,11.07
2022-11-28T21:55:32.269Z,10.38
2022-11-28T21:58:11.492Z,9.35
2022-11-28T22:00:53.607Z,9.73
2022-11-28T22:03:27.552Z,7.82
2022-11-28T22:06:02.607Z,10.50
2022-11-28T22:08:32.730Z,8.23
2022-11-28T22:11:12.998Z,7.88
2022-11-28T22:13:45.352Z,10.15
2022-11-28T22:16:18.960Z,9.40
2022-11-28T22:18:49.879Z,10.13
2022-11-28T22:24:21.114Z,7.35
2022-11-28T22:26:51.084Z,9.35
2022-11-28T22:29:21.510Z,6.72
2022-11-28T22:31:59.291Z,8.95
2022-11-28T22:34:28.656Z,12.18
2022-11-28T22:36:58.012Z,9.45
2022-11-28T22:39:27.432Z,8.15
2022-11-28T22:41:56.802Z,9.25
2022-11-28T22:44:26.204Z,10.32
2022-11-28T22:46:57.768Z,8.23
2022-11-28T22:49:27.730Z,9.70
2022-11-28T22:51:56.957Z,8.70
2022-11-28T22:54:26.673Z,8.20
2022-11-28T22:56:56.711Z,7.85
2022-11-28T22:59:34.665Z,9.25
2022-11-28T23:02:06.839Z,10.07
2022-11-28T23:04:38.977Z,7.45
2022-11-28T23:07:13.934Z,8.23
2022-11-28T23:09:43.416Z,6.57
2022-11-28T23:12:13.271Z,8.02
2022-11-28T23:14:43.442Z,8.18
2022-11-28T23:17:14.913Z,7.95
2022-11-28T23:19:49.314Z,8.57
2022-11-28T23:22:19.011Z,7.03
2022-11-28T23:24:48.746Z,6.05
2022-11-28T23:27:23.293Z,7.35
2022-11-28T23:29:52.954Z,8.93
2022-11-28T23:32:24.690Z,10.70
2022-11-28T23:34:54.151Z,10.15
2022-11-28T23:37:23.618Z,8.02
2022-11-28T23:39:52.876Z,9.23
2022-11-28T23:42:21.983Z,9.05
2022-11-28T23:44:56.334Z,8.55
2022-11-28T23:47:32.805Z,9.10
2022-11-28T23:50:02.290Z,7.82
2022-11-28T23:52:32.078Z,7.72
2022-11-28T23:55:01.435Z,7.13
2022-11-28T23:57:37.706Z,9.57
